CheckWX is a tool to help pilots better visualize weather data.  It is not intended as a substitute for an official pre-flight weather briefing.

11:37:53 UTC

RPLC TAF
Clark International Airport
Angeles City, Philippines
TAF RPLC 260500Z 2606/2712 04008KT 9999 SCT020 BKN100 TX31/2606Z TN23/2622Z TEMPO 2606/2612 32012KT SCT020 BKN300

Jan-26@
06:00 UTC

Jan-26 @ 06:00 UTC

Jan-27@
12:00 UTC

Jan-27 @ 12:00 UTC

TAF RPLC 260500Z 2606/2712 04008KT 9999 SCT020 BKN100 TX31/2606Z TN23/2622Z
Wind
  • 040° at 8 KTS
Cloud Levels
  • Scattered at 2,000' AGL
  • Broken at 10,000' AGL

Jan-26@
06:00 UTC

Jan-26 @ 06:00 UTC

Jan-26@
12:00 UTC

Jan-26 @ 12:00 UTC

TEMPO 2606/2612 32012KT SCT020 BKN300

Temporary

Temporary Changes expected for less than half the time period

Wind
  • 320° at 12 KTS
Cloud Levels
  • Scattered at 2,000' AGL
  • Broken at 30,000' AGL